Time;durP1;ratioP1;P1;durP2;ratioP2;P2;SDS_P1;SDS_P2;PMS_P1;PMS_P2;Temp;Humidity;BMP_temperature;BMP_pressure;BME280_temperature;BME280_humidity;BME280_pressure;Samples;Min_cycle;Max_cycle;Signal;HPM_P1;HPM_P2
2022/03/03 00:00:41;;;;;;;23.10;15.33;;;;;;;3.41;53.92;101990.84;5029441;28;20021;-68
2022/03/03 00:03:07;;;;;;;25.33;15.10;;;;;;;3.38;54.00;101977.06;5028495;28;20029;-67
2022/03/03 00:05:38;;;;;;;25.47;15.67;;;;;;;3.31;54.05;101981.88;5029790;28;20017;-68
2022/03/03 00:08:43;;;;;;;28.30;16.60;;;;;;;3.28;54.40;101976.81;5029920;28;20063;-68
2022/03/03 00:11:30;;;;;;;25.10;15.13;;;;;;;3.30;54.46;101989.84;5028092;28;20036;-68
2022/03/03 00:14:08;;;;;;;23.90;15.63;;;;;;;3.27;54.53;101985.63;5040140;28;20116;-68
2022/03/03 00:16:33;;;;;;;23.47;15.37;;;;;;;3.32;54.48;101977.47;5021000;28;20037;-68
2022/03/03 00:18:59;;;;;;;24.17;16.00;;;;;;;3.29;54.39;101970.63;5029541;28;20391;-67
2022/03/03 00:21:24;;;;;;;27.53;16.83;;;;;;;3.27;54.37;101969.88;5030056;28;20633;-67
2022/03/03 00:23:50;;;;;;;28.73;16.53;;;;;;;3.28;54.37;101975.97;5029374;28;20037;-67
2022/03/03 00:26:15;;;;;;;27.43;15.53;;;;;;;3.25;54.42;101976.16;5029349;28;20032;-66
2022/03/03 00:28:41;;;;;;;23.83;15.63;;;;;;;3.20;54.54;101970.34;5027927;28;20027;-68
2022/03/03 00:31:07;;;;;;;25.70;16.43;;;;;;;3.17;54.65;101970.53;5028876;28;20563;-68
2022/03/03 00:33:32;;;;;;;27.57;16.00;;;;;;;3.17;54.68;101971.34;5029181;28;20021;-67
2022/03/03 00:35:57;;;;;;;23.97;15.87;;;;;;;3.13;55.04;101971.66;5028643;28;20052;-68
2022/03/03 00:38:22;;;;;;;23.60;16.20;;;;;;;3.13;54.94;101975.13;5030245;28;20630;-67
2022/03/03 00:40:48;;;;;;;23.83;15.40;;;;;;;3.10;54.96;101970.91;5028320;28;20049;-67
2022/03/03 00:43:13;;;;;;;29.83;16.37;;;;;;;3.07;55.08;101976.34;5029279;28;20104;-68
2022/03/03 00:45:38;;;;;;;21.57;15.37;;;;;;;3.09;55.25;101969.22;5028887;28;20094;-67
2022/03/03 00:48:04;;;;;;;27.77;16.37;;;;;;;3.06;55.30;101969.41;5029928;28;20032;-67
2022/03/03 00:50:30;;;;;;;23.83;15.80;;;;;;;3.03;55.30;101963.50;5028607;28;20096;-67
2022/03/03 00:52:56;;;;;;;23.70;15.57;;;;;;;3.01;55.41;101971.47;5029709;28;20120;-68
2022/03/03 00:55:22;;;;;;;25.67;15.87;;;;;;;3.04;55.62;101959.94;5029004;28;20033;-68
2022/03/03 00:57:47;;;;;;;25.13;15.53;;;;;;;3.04;55.70;101957.31;5029475;28;20053;-68
2022/03/03 01:00:13;;;;;;;25.73;16.10;;;;;;;3.05;55.60;101956.38;5027212;28;20481;-67
2022/03/03 01:02:39;;;;;;;24.47;15.37;;;;;;;3.04;55.73;101958.16;5029354;28;20549;-67
2022/03/03 01:05:05;;;;;;;25.93;16.67;;;;;;;3.01;55.75;101960.13;5029622;28;20596;-68
2022/03/03 01:07:31;;;;;;;24.33;16.50;;;;;;;2.97;55.78;101966.53;5028251;28;20055;-68
2022/03/03 01:09:56;;;;;;;24.97;16.67;;;;;;;2.96;56.10;101972.69;5028771;28;20129;-68
2022/03/03 01:12:21;;;;;;;24.87;15.83;;;;;;;2.91;56.08;101962.50;5029488;28;20104;-68
2022/03/03 01:14:47;;;;;;;30.07;15.80;;;;;;;2.92;56.12;101960.72;5029320;28;20029;-67
2022/03/03 01:17:13;;;;;;;24.57;15.90;;;;;;;2.88;56.33;101957.41;5027051;28;20499;-68
2022/03/03 01:19:39;;;;;;;26.70;16.23;;;;;;;2.87;56.39;101957.50;5027926;28;20138;-67
2022/03/03 01:22:04;;;;;;;23.37;15.67;;;;;;;2.82;56.29;101960.41;5029471;28;20033;-68
2022/03/03 01:24:31;;;;;;;24.67;16.27;;;;;;;2.79;56.49;101955.34;5028822;28;20026;-68
2022/03/03 01:26:57;;;;;;;24.77;16.37;;;;;;;2.72;56.68;101951.41;5024409;28;20037;-68
2022/03/03 01:29:22;;;;;;;23.93;15.93;;;;;;;2.68;56.72;101956.00;5027564;28;20021;-68
2022/03/03 01:31:47;;;;;;;29.33;17.03;;;;;;;2.66;56.84;101950.00;5028475;28;20025;-67
2022/03/03 01:34:12;;;;;;;26.00;17.00;;;;;;;2.69;57.16;101954.22;5028745;28;20734;-69
2022/03/03 01:36:38;;;;;;;27.07;16.73;;;;;;;2.63;57.01;101947.59;5027160;28;20044;-67
2022/03/03 01:39:03;;;;;;;30.23;17.93;;;;;;;2.59;57.04;101943.44;5027651;28;20406;-67
2022/03/03 01:41:29;;;;;;;26.13;16.80;;;;;;;2.59;57.21;101935.56;5028401;28;20049;-68
2022/03/03 01:43:54;;;;;;;24.73;16.97;;;;;;;2.57;57.32;101928.72;5024969;28;20032;-68
2022/03/03 01:46:19;;;;;;;26.83;16.33;;;;;;;2.52;57.48;101926.38;5027768;28;20108;-67
2022/03/03 01:48:45;;;;;;;27.23;16.30;;;;;;;2.54;57.36;101924.50;5027416;28;20184;-68
2022/03/03 01:51:10;;;;;;;29.80;17.50;;;;;;;2.49;57.48;101922.16;5026760;28;20065;-68
2022/03/03 01:53:36;;;;;;;29.03;17.10;;;;;;;2.47;57.73;101923.19;5027736;28;20037;-67
2022/03/03 01:56:02;;;;;;;30.70;17.43;;;;;;;2.43;57.50;101914.69;5028484;28;20435;-67
2022/03/03 01:58:27;;;;;;;28.00;16.93;;;;;;;2.43;57.50;101917.31;5028319;28;20029;-68
2022/03/03 02:00:53;;;;;;;26.67;16.77;;;;;;;2.39;57.83;101909.72;5026027;28;20162;-68
2022/03/03 02:03:19;;;;;;;26.97;16.93;;;;;;;2.40;57.82;101903.53;5028419;28;20029;-68
2022/03/03 02:05:44;;;;;;;30.27;17.20;;;;;;;2.36;57.94;101902.88;5025345;28;20033;-68
2022/03/03 02:08:09;;;;;;;26.10;16.90;;;;;;;2.33;57.85;101899.59;5028216;28;20033;-68
2022/03/03 02:10:35;;;;;;;26.93;17.03;;;;;;;2.33;57.87;101903.06;5026226;28;20115;-68
2022/03/03 02:13:00;;;;;;;27.30;16.67;;;;;;;2.30;57.88;101900.59;5027833;28;20036;-67
2022/03/03 02:15:25;;;;;;;28.13;17.60;;;;;;;2.18;58.18;101902.19;5028208;28;20078;-68
2022/03/03 02:17:51;;;;;;;27.37;16.93;;;;;;;2.16;58.42;101896.19;5027360;28;20101;-68
2022/03/03 02:20:22;;;;;;;30.17;17.67;;;;;;;2.11;58.38;101900.88;5026798;28;20029;-67
2022/03/03 02:22:48;;;;;;;29.27;17.50;;;;;;;2.03;58.69;101891.78;5027484;28;20102;-68
2022/03/03 02:25:14;;;;;;;26.13;17.97;;;;;;;2.03;58.95;101894.41;5027846;28;20437;-68
2022/03/03 02:27:40;;;;;;;26.60;16.93;;;;;;;1.99;59.08;101901.56;5024721;28;20501;-68
2022/03/03 02:30:06;;;;;;;27.50;17.63;;;;;;;1.98;59.30;101893.78;5026276;28;20079;-68
2022/03/03 02:32:31;;;;;;;26.87;17.50;;;;;;;2.01;59.18;101898.84;5026528;28;20025;-68
2022/03/03 02:34:56;;;;;;;29.60;17.27;;;;;;;2.01;59.35;101891.84;5026920;28;20596;-68
2022/03/03 02:37:22;;;;;;;26.97;17.20;;;;;;;1.96;59.63;101903.53;5027543;28;20025;-68
2022/03/03 02:39:47;;;;;;;28.13;18.17;;;;;;;1.87;59.94;101897.03;5026160;28;20481;-69
2022/03/03 02:42:12;;;;;;;27.40;17.63;;;;;;;1.83;60.23;101896.38;5027426;28;20108;-67
2022/03/03 02:44:38;;;;;;;25.40;16.80;;;;;;;1.87;60.25;101899.66;5026919;28;20048;-68
2022/03/03 02:47:04;;;;;;;29.70;17.57;;;;;;;1.85;60.30;101899.75;5026749;28;20473;-67
2022/03/03 02:49:29;;;;;;;27.50;17.43;;;;;;;1.88;60.37;101895.28;5026142;28;20116;-67
2022/03/03 02:51:54;;;;;;;28.63;17.47;;;;;;;1.87;60.33;101886.56;5026974;28;20061;-67
2022/03/03 02:54:20;;;;;;;28.73;17.83;;;;;;;1.89;60.37;101895.19;5027011;28;20041;-68
2022/03/03 02:59:29;;;;;;;26.87;17.50;;;;;;;1.82;60.52;101894.69;5022925;28;20087;-67
2022/03/03 03:01:54;;;;;;;27.63;18.20;;;;;;;1.81;60.55;101892.16;5024219;28;20037;-68
2022/03/03 03:04:19;;;;;;;30.17;17.73;;;;;;;1.77;60.62;101886.28;5027423;28;20038;-68
2022/03/03 03:06:44;;;;;;;29.80;18.33;;;;;;;1.83;60.65;101896.38;5026793;28;20021;-67
2022/03/03 03:09:10;;;;;;;28.57;17.93;;;;;;;1.79;60.57;101886.19;5026180;28;20521;-68
2022/03/03 03:11:36;;;;;;;27.90;17.93;;;;;;;1.83;60.48;101890.31;5026728;28;20041;-68
2022/03/03 03:14:01;;;;;;;32.67;18.53;;;;;;;1.80;60.56;101891.31;5022964;28;20333;-68
2022/03/03 03:16:27;;;;;;;30.97;18.13;;;;;;;1.78;60.30;101881.88;5029783;28;20428;-68
2022/03/03 03:18:52;;;;;;;28.27;18.57;;;;;;;1.70;60.48;101879.66;5026276;28;20485;-68
2022/03/03 03:21:17;;;;;;;30.43;18.27;;;;;;;1.65;60.56;101873.03;5026804;28;20029;-68
2022/03/03 03:23:42;;;;;;;32.80;18.37;;;;;;;1.61;60.53;101869.72;5026407;28;20055;-67
2022/03/03 03:26:08;;;;;;;30.23;18.63;;;;;;;1.60;60.71;101872.44;5026897;28;20022;-68
2022/03/03 03:28:33;;;;;;;30.77;18.37;;;;;;;1.55;60.62;101872.72;5025874;28;20099;-68
2022/03/03 03:30:58;;;;;;;28.90;17.87;;;;;;;1.55;60.71;101862.25;5026555;28;20029;-68
2022/03/03 03:33:23;;;;;;;31.47;18.60;;;;;;;1.53;60.76;101864.94;5026568;28;20071;-68
2022/03/03 03:35:49;;;;;;;29.10;17.93;;;;;;;1.48;60.98;101868.75;5026566;28;20485;-67
2022/03/03 03:38:14;;;;;;;33.77;18.90;;;;;;;1.44;60.98;101857.59;5026912;28;20033;-67
2022/03/03 03:40:40;;;;;;;29.57;19.37;;;;;;;1.38;61.06;101860.56;5025572;28;20060;-68
2022/03/03 03:43:05;;;;;;;31.00;18.60;;;;;;;1.38;61.31;101860.56;5026944;28;20029;-67
2022/03/03 03:45:31;;;;;;;26.27;17.90;;;;;;;1.37;61.35;101861.50;5026770;28;20065;-67
2022/03/03 03:47:57;;;;;;;29.43;18.83;;;;;;;1.37;61.45;101851.03;5026808;28;20037;-67
2022/03/03 03:50:22;;;;;;;28.90;18.30;;;;;;;1.43;61.58;101858.53;5023273;28;20017;-68
2022/03/03 03:52:48;;;;;;;33.00;18.77;;;;;;;1.45;61.63;101850.63;5029545;28;20037;-68
2022/03/03 03:55:13;;;;;;;31.93;18.97;;;;;;;1.42;61.65;101848.16;5027683;28;20366;-68
2022/03/03 03:57:39;;;;;;;28.07;17.70;;;;;;;1.41;61.57;101839.44;5029583;28;20100;-67
2022/03/03 04:00:08;;;;;;;29.07;18.23;;;;;;;1.41;61.53;101839.44;5029210;28;20482;-67
2022/03/03 04:02:33;;;;;;;31.35;19.60;;;;;;;1.41;61.50;101849.91;5030585;28;20531;-68
2022/03/03 04:04:58;;;;;;;31.73;19.43;;;;;;;1.40;61.55;101850.84;5030340;28;20022;-68
2022/03/03 04:07:24;;;;;;;30.13;18.67;;;;;;;1.36;61.49;101849.34;5029550;28;20029;-67
2022/03/03 04:09:49;;;;;;;30.43;18.83;;;;;;;1.33;61.57;101859.97;5029005;28;20108;-68
2022/03/03 04:12:14;;;;;;;29.10;17.63;;;;;;;1.32;61.63;101853.06;5030179;28;20017;-67
2022/03/03 04:14:39;;;;;;;29.77;19.00;;;;;;;1.28;61.73;101851.56;5030364;28;20559;-67
2022/03/03 04:17:05;;;;;;;30.87;19.07;;;;;;;1.23;61.92;101846.59;5030299;28;20064;-68
2022/03/03 04:19:30;;;;;;;28.90;19.40;;;;;;;1.18;61.85;101845.16;5028169;28;20033;-68
2022/03/03 04:21:55;;;;;;;30.50;18.03;;;;;;;1.14;61.90;101841.84;5030749;28;20100;-67
2022/03/03 04:24:21;;;;;;;32.33;18.10;;;;;;;1.13;62.00;101834.91;5030176;28;20036;-69
2022/03/03 04:26:46;;;;;;;27.40;18.30;;;;;;;1.14;62.01;101833.16;5030171;28;20075;-67
2022/03/03 04:29:11;;;;;;;30.23;18.77;;;;;;;1.13;62.04;101831.47;5028758;28;20393;-68
2022/03/03 04:31:37;;;;;;;34.77;18.93;;;;;;;1.07;62.03;101823.97;5026175;28;20033;-68
2022/03/03 04:34:02;;;;;;;28.87;18.13;;;;;;;1.08;62.09;101821.25;5029648;28;20068;-69
2022/03/03 04:36:28;;;;;;;34.20;19.00;;;;;;;1.11;62.17;101826.31;5029592;28;20045;-67
2022/03/03 04:38:53;;;;;;;29.90;19.07;;;;;;;1.09;62.50;101820.34;5028859;28;20021;-68
2022/03/03 04:41:19;;;;;;;30.87;19.50;;;;;;;1.09;62.22;101819.50;5029566;28;20025;-68
2022/03/03 04:43:44;;;;;;;31.83;18.87;;;;;;;1.07;62.41;101821.34;5029302;28;20048;-67
2022/03/03 04:46:09;;;;;;;29.27;18.27;;;;;;;1.06;62.53;101819.66;5029827;28;20427;-68
2022/03/03 04:48:35;;;;;;;29.30;18.50;;;;;;;1.02;62.63;101813.75;5028097;28;20025;-68
2022/03/03 04:51:01;;;;;;;40.00;19.90;;;;;;;0.94;62.67;101805.50;5029287;28;20025;-68
2022/03/03 04:53:27;;;;;;;30.17;18.23;;;;;;;0.93;63.03;101816.91;5028527;28;20033;-67
2022/03/03 04:55:53;;;;;;;29.33;18.63;;;;;;;0.92;63.31;101816.06;5029527;28;20033;-67
2022/03/03 04:58:18;;;;;;;31.23;19.30;;;;;;;0.92;63.21;101818.66;5029294;28;20033;-68
2022/03/03 05:00:44;;;;;;;30.13;19.20;;;;;;;0.92;63.26;101818.66;5028735;28;20014;-68
2022/03/03 05:03:09;;;;;;;32.63;19.60;;;;;;;0.92;63.52;101820.44;5028859;28;20063;-68
2022/03/03 05:05:34;;;;;;;34.83;19.20;;;;;;;0.87;63.41;101814.63;5029307;28;20638;-68
2022/03/03 05:07:59;;;;;;;31.60;18.67;;;;;;;0.85;63.22;101817.28;5028820;28;20033;-68
2022/03/03 05:10:25;;;;;;;30.37;18.90;;;;;;;0.83;63.56;101828.75;5028221;28;20021;-67
2022/03/03 05:12:50;;;;;;;29.70;19.60;;;;;;;0.84;63.81;101828.69;5028157;28;20140;-68
2022/03/03 05:15:15;;;;;;;32.87;19.27;;;;;;;0.83;63.75;101829.59;5029282;28;20044;-68
2022/03/03 05:17:41;;;;;;;31.83;18.87;;;;;;;0.85;63.75;101825.13;5028254;28;20029;-68
2022/03/03 05:20:06;;;;;;;31.37;20.10;;;;;;;0.82;63.90;101819.25;5026998;28;20043;-68
2022/03/03 05:22:32;;;;;;;33.53;19.80;;;;;;;0.85;63.76;101817.28;5028527;28;20470;-67
2022/03/03 05:24:57;;;;;;;31.13;18.87;;;;;;;0.85;63.82;101826.91;5028549;28;20029;-68
2022/03/03 05:27:22;;;;;;;30.07;18.00;;;;;;;0.84;63.83;101823.44;5028699;28;20469;-68
2022/03/03 05:29:48;;;;;;;30.63;19.20;;;;;;;0.84;63.75;101827.84;5028086;28;20029;-68
2022/03/03 05:32:13;;;;;;;33.37;18.83;;;;;;;0.77;63.77;101827.34;5026339;28;20470;-68
2022/03/03 05:34:38;;;;;;;32.23;19.47;;;;;;;0.78;63.79;101826.41;5028989;28;20035;-68
2022/03/03 05:37:06;;;;;;;33.27;19.73;;;;;;;0.78;63.74;101826.41;5029033;28;20032;-68
2022/03/03 05:39:31;;;;;;;29.73;19.63;;;;;;;0.78;63.87;101828.19;5026652;28;20025;-68
2022/03/03 05:41:57;;;;;;;31.07;20.00;;;;;;;0.75;63.84;101831.81;5028603;28;20063;-67
2022/03/03 05:44:22;;;;;;;28.67;18.90;;;;;;;0.72;63.89;101839.81;5028064;28;20033;-68
2022/03/03 05:46:48;;;;;;;32.37;18.87;;;;;;;0.70;63.97;101835.59;5029187;28;20044;-68
2022/03/03 05:49:15;;;;;;;32.97;19.70;;;;;;;0.64;64.02;101828.94;5027364;28;20029;-67
2022/03/03 05:51:40;;;;;;;32.70;19.47;;;;;;;0.68;64.02;101830.47;5028396;28;20141;-67
2022/03/03 05:54:06;;;;;;;31.53;19.40;;;;;;;0.64;63.87;101826.31;5028722;28;20057;-67
2022/03/03 05:56:37;;;;;;;32.70;20.17;;;;;;;0.59;63.69;101837.03;5028458;28;20049;-68
2022/03/03 05:59:05;;;;;;;35.37;19.77;;;;;;;0.57;64.19;101817.09;5028756;28;20120;-67
2022/03/03 06:01:31;;;;;;;29.88;19.70;;;;;;;0.56;64.16;101821.50;5028512;28;20484;-68
2022/03/03 06:04:00;;;;;;;32.03;20.17;;;;;;;0.53;64.20;101816.44;5029596;28;20634;-67
2022/03/03 06:06:34;;;;;;;32.20;19.80;;;;;;;0.48;64.42;101817.59;5027818;28;20026;-67
2022/03/03 06:09:04;;;;;;;35.23;18.80;;;;;;;0.51;64.29;101817.44;5027541;28;20107;-68
2022/03/03 06:11:29;;;;;;;;;;;;;;;0.55;64.31;101817.19;5029523;28;20169;-67
2022/03/03 06:14:05;;;;;;;32.63;19.50;;;;;;;0.49;64.29;101806.22;5027909;28;20011;-68
2022/03/03 06:16:30;;;;;;;30.23;18.60;;;;;;;0.42;64.40;101812.72;5027960;28;20124;-67
2022/03/03 06:18:58;;;;;;;32.20;19.67;;;;;;;0.42;64.54;101813.56;5027112;28;20064;-68
2022/03/03 06:21:23;;;;;;;43.33;22.07;;;;;;;0.42;64.61;101817.94;5027995;28;20477;-67
2022/03/03 06:23:49;;;;;;;39.17;20.67;;;;;;;0.41;64.72;101821.47;5026996;28;20044;-67
2022/03/03 06:26:17;;;;;;;34.57;19.67;;;;;;;0.40;64.67;101827.63;5027019;28;20025;-68
2022/03/03 06:28:43;;;;;;;34.27;19.47;;;;;;;0.38;64.63;101826.88;5025671;28;20021;-67
2022/03/03 06:31:08;;;;;;;33.13;19.53;;;;;;;0.39;64.56;101831.16;5026846;28;20075;-68
2022/03/03 06:33:35;;;;;;;31.67;19.83;;;;;;;0.36;64.80;101826.94;5027622;28;20037;-67
2022/03/03 06:36:01;;;;;;;34.23;20.23;;;;;;;0.32;64.92;101821.97;5027062;28;20112;-68
2022/03/03 06:38:26;;;;;;;33.60;20.80;;;;;;;0.36;65.02;101824.34;5028224;28;20021;-68
2022/03/03 06:40:54;;;;;;;33.00;19.60;;;;;;;0.35;65.18;101830.50;5027662;28;20554;-68
2022/03/03 06:43:19;;;;;;;36.23;19.83;;;;;;;0.40;65.09;101838.91;5027109;28;20036;-67
2022/03/03 06:45:45;;;;;;;29.97;19.13;;;;;;;0.34;65.01;101828.81;5026739;28;20029;-68
2022/03/03 06:48:10;;;;;;;34.10;20.20;;;;;;;0.41;65.11;101831.94;5026882;28;20033;-68
2022/03/03 06:50:42;;;;;;;33.60;19.90;;;;;;;0.45;65.06;101843.91;5026781;28;20057;-68
2022/03/03 06:53:08;;;;;;;36.07;19.50;;;;;;;0.49;65.00;101841.03;5026951;28;20394;-68
2022/03/03 06:55:35;;;;;;;31.50;19.80;;;;;;;0.55;65.17;101840.72;5027760;28;20029;-67
2022/03/03 06:58:00;;;;;;;33.27;20.00;;;;;;;0.61;65.08;101826.50;5027095;28;20029;-67
2022/03/03 07:00:33;;;;;;;33.97;20.40;;;;;;;0.69;64.97;101832.16;5039740;28;20021;-66
2022/03/03 07:03:00;;;;;;;36.77;20.43;;;;;;;0.72;64.99;101842.44;5026295;28;20045;-68
2022/03/03 07:05:28;;;;;;;32.30;19.63;;;;;;;0.79;64.65;101848.16;5023677;28;20083;-68
2022/03/03 07:07:54;;;;;;;30.60;19.53;;;;;;;0.85;64.96;101842.59;5025437;28;20432;-68
2022/03/03 07:10:23;;;;;;;30.80;19.60;;;;;;;0.90;65.10;101856.28;5026800;28;20029;-68
2022/03/03 07:12:54;;;;;;;31.58;20.25;;;;;;;0.96;65.00;101858.56;5022328;28;20052;-68
2022/03/03 07:15:21;;;;;;;33.83;20.03;;;;;;;1.01;65.01;101843.47;5024171;28;20028;-68
2022/03/03 07:17:50;;;;;;;33.57;20.07;;;;;;;1.15;65.04;101858.38;5027458;28;20025;-67
2022/03/03 07:20:46;;;;;;;31.75;18.70;;;;;;;1.28;64.94;101853.31;5023183;28;20293;-68
2022/03/03 07:23:37;;;;;;;29.90;19.30;;;;;;;1.42;64.85;101858.63;5020534;28;20034;-68
2022/03/03 07:26:10;;;;;;;31.43;18.50;;;;;;;1.58;64.62;101861.22;5026224;28;20032;-67
2022/03/03 07:28:39;;;;;;;32.87;18.97;;;;;;;1.70;64.47;101856.09;5028091;28;20028;-68
2022/03/03 07:31:06;;;;;;;33.88;19.08;;;;;;;1.84;63.95;101856.16;5031723;28;20167;-68
2022/03/03 07:33:34;;;;;;;31.00;18.27;;;;;;;2.00;63.51;101856.09;5031527;28;20022;-68
2022/03/03 07:36:01;;;;;;;32.10;19.13;;;;;;;2.15;63.51;101855.19;5029824;28;20088;-68
2022/03/03 07:38:35;;;;;;;32.07;17.77;;;;;;;2.28;63.28;101857.91;5034951;28;20478;-68
2022/03/03 07:41:02;;;;;;;30.63;19.33;;;;;;;2.46;62.98;101858.59;5032594;28;20033;-67
2022/03/03 07:43:28;;;;;;;33.60;18.23;;;;;;;2.60;62.72;101861.25;5028140;28;20033;-67
2022/03/03 07:45:53;;;;;;;29.43;18.43;;;;;;;2.78;62.39;101856.63;5026677;28;20481;-67
2022/03/03 07:48:23;;;;;;;33.23;19.30;;;;;;;2.92;61.95;101850.53;5027131;28;20040;-67
2022/03/03 07:50:49;;;;;;;32.67;18.53;;;;;;;3.04;61.45;101855.81;5030986;28;20025;-69
2022/03/03 07:53:15;;;;;;;42.93;19.10;;;;;;;3.15;61.36;101856.91;5027226;28;20094;-68
2022/03/03 07:55:49;;;;;;;30.40;18.47;;;;;;;3.30;61.01;101863.81;5030846;28;20033;-68
2022/03/03 07:58:20;;;;;;;32.73;18.20;;;;;;;3.43;60.89;101865.56;5031818;28;20636;-66
2022/03/03 08:00:49;;;;;;;29.93;18.00;;;;;;;3.58;60.68;101865.50;5032671;28;20018;-67
2022/03/03 08:03:19;;;;;;;29.80;18.30;;;;;;;3.75;60.34;101873.09;5028800;28;20079;-68
2022/03/03 08:05:49;;;;;;;30.63;18.90;;;;;;;3.85;59.94;101874.19;5030965;28;20104;-68
2022/03/03 08:08:17;;;;;;;30.50;18.43;;;;;;;4.00;59.71;101869.69;5031234;28;20036;-68
2022/03/03 08:10:43;;;;;;;31.73;18.83;;;;;;;4.13;59.28;101877.63;5029209;28;20026;-67
2022/03/03 08:13:12;;;;;;;28.60;18.43;;;;;;;4.22;58.45;101877.81;5030884;28;20382;-68
2022/03/03 08:15:39;;;;;;;29.38;18.02;;;;;;;4.24;58.31;101875.94;5030988;28;20072;-67
2022/03/03 08:18:05;;;;;;;33.90;18.47;;;;;;;4.36;58.23;101874.28;5031590;28;20485;-68
2022/03/03 08:20:32;;;;;;;31.43;18.37;;;;;;;4.45;57.83;101871.00;5027829;28;20022;-68
2022/03/03 08:23:02;;;;;;;32.57;18.13;;;;;;;4.45;57.89;101865.75;5031423;28;20029;-68
2022/03/03 08:25:28;;;;;;;32.03;18.73;;;;;;;4.51;57.88;101867.94;5029415;28;20033;-68
2022/03/03 08:27:54;;;;;;;31.40;18.47;;;;;;;4.58;57.80;101863.94;5028104;28;20036;-67
2022/03/03 08:30:20;;;;;;;29.80;18.27;;;;;;;4.65;57.54;101870.47;5030003;28;20403;-68
2022/03/03 08:33:05;;;;;;;31.33;18.50;;;;;;;4.73;57.43;101871.72;5029595;28;20026;-68
2022/03/03 08:35:36;;;;;;;30.97;17.37;;;;;;;4.82;57.34;101869.28;5025062;28;20022;-66
2022/03/03 08:38:08;;;;;;;40.33;18.37;;;;;;;4.95;57.23;101862.22;5027834;28;20515;-68
2022/03/03 08:40:34;;;;;;;30.60;18.37;;;;;;;5.08;56.97;101856.91;5029019;28;20049;-67
2022/03/03 08:43:03;;;;;;;31.57;18.00;;;;;;;5.14;56.12;101856.44;5030680;28;20036;-68
2022/03/03 08:45:31;;;;;;;37.93;24.20;;;;;;;5.25;56.05;101858.31;5030260;28;20029;-69
2022/03/03 08:48:00;;;;;;;38.10;20.57;;;;;;;5.37;56.11;101860.06;5030245;28;20117;-67
2022/03/03 08:50:27;;;;;;;30.65;19.40;;;;;;;5.44;55.42;101861.28;5027841;28;20083;-68
2022/03/03 08:52:54;;;;;;;34.30;19.63;;;;;;;5.54;54.82;101851.78;5030713;28;20071;-67
2022/03/03 08:55:20;;;;;;;39.90;23.80;;;;;;;5.57;54.51;101856.81;5030435;28;20036;-67
2022/03/03 08:57:45;;;;;;;29.97;18.73;;;;;;;5.62;54.57;101859.09;5030211;28;20029;-68
2022/03/03 09:00:11;;;;;;;24.30;17.17;;;;;;;5.71;54.30;101861.03;5029593;28;20033;-66
2022/03/03 09:02:37;;;;;;;29.23;17.20;;;;;;;5.76;54.17;101858.91;5030756;28;20539;-68
2022/03/03 09:05:03;;;;;;;29.17;16.03;;;;;;;5.83;53.35;101854.03;5030384;28;20096;-67
2022/03/03 09:07:29;;;;;;;27.77;16.97;;;;;;;5.87;53.09;101850.22;5030143;28;20017;-68
2022/03/03 09:09:54;;;;;;;25.20;15.27;;;;;;;5.94;52.91;101861.16;5029232;28;20032;-67
2022/03/03 09:12:20;;;;;;;26.60;16.37;;;;;;;6.05;52.40;101856.75;5031057;28;20025;-68
2022/03/03 09:14:45;;;;;;;25.60;15.00;;;;;;;6.09;52.06;101845.03;5030149;28;20101;-67
2022/03/03 09:17:11;;;;;;;27.10;16.40;;;;;;;6.17;51.77;101852.34;5030571;28;20060;-67
2022/03/03 09:19:36;;;;;;;30.10;16.87;;;;;;;6.28;51.91;101860.28;5029215;28;20036;-68
2022/03/03 09:22:03;;;;;;;25.87;15.67;;;;;;;6.35;51.89;101855.34;5030151;28;20018;-68
2022/03/03 09:24:29;;;;;;;27.33;15.53;;;;;;;6.40;51.18;101856.72;5029923;28;20473;-68
2022/03/03 09:26:54;;;;;;;25.23;15.37;;;;;;;6.42;50.70;101852.16;5030214;28;20021;-68
2022/03/03 09:29:20;;;;;;;26.20;16.03;;;;;;;6.52;50.62;101850.47;5029088;28;20032;-67
2022/03/03 09:31:46;;;;;;;27.73;15.63;;;;;;;6.63;50.50;101848.78;5029745;28;20017;-67
2022/03/03 09:34:11;;;;;;;25.90;15.33;;;;;;;6.71;50.14;101849.88;5029885;28;20252;-68
2022/03/03 09:36:37;;;;;;;25.40;15.03;;;;;;;6.80;50.02;101857.06;5030062;28;20255;-67
2022/03/03 09:39:03;;;;;;;24.23;16.03;;;;;;;6.84;50.06;101839.19;5028929;28;20021;-67
2022/03/03 09:41:29;;;;;;;24.13;15.70;;;;;;;6.99;50.19;101843.25;5029689;28;20128;-68
2022/03/03 09:43:56;;;;;;;25.13;16.13;;;;;;;7.15;49.85;101841.03;5028886;28;20060;-67
2022/03/03 09:46:22;;;;;;;27.33;17.03;;;;;;;7.26;49.70;101842.00;5029833;28;20040;-67
2022/03/03 09:48:47;;;;;;;30.07;16.97;;;;;;;7.33;49.56;101827.31;5027487;28;20021;-67
2022/03/03 09:51:13;;;;;;;22.67;15.30;;;;;;;7.44;49.14;101836.03;5030058;28;20053;-68
2022/03/03 09:53:40;;;;;;;24.93;15.23;;;;;;;7.52;48.39;101838.06;5028779;28;20108;-66
2022/03/03 09:56:06;;;;;;;33.03;19.03;;;;;;;7.60;47.79;101846.19;5029495;28;20549;-68
2022/03/03 09:58:32;;;;;;;24.57;15.13;;;;;;;7.64;47.52;101839.69;5028700;28;20116;-66
2022/03/03 10:00:57;;;;;;;22.10;14.83;;;;;;;7.73;47.42;101841.56;5029341;28;20040;-67
2022/03/03 10:03:23;;;;;;;31.35;16.98;;;;;;;7.81;47.13;101840.09;5028580;28;20021;-67
2022/03/03 10:05:51;;;;;;;32.67;16.77;;;;;;;7.87;47.27;101850.16;5028638;28;20013;-68
2022/03/03 10:08:21;;;;;;;26.67;14.70;;;;;;;7.90;46.96;101834.88;5029223;28;20029;-66
2022/03/03 10:10:54;;;;;;;24.63;16.08;;;;;;;8.02;46.54;101841.75;5028794;28;20021;-67
2022/03/03 10:13:20;;;;;;;30.40;17.77;;;;;;;8.10;46.50;101835.84;5028593;28;20389;-67
2022/03/03 10:15:51;;;;;;;24.92;14.63;;;;;;;8.12;46.24;101843.66;5029127;28;20025;-67
2022/03/03 10:18:17;;;;;;;28.13;17.30;;;;;;;8.25;46.83;101829.22;5023366;28;20717;-67
2022/03/03 10:20:54;;;;;;;28.40;17.48;;;;;;;8.35;46.82;101835.44;5027997;28;20353;-67
2022/03/03 10:23:24;;;;;;;27.15;16.92;;;;;;;8.45;47.17;101826.72;5029001;28;20040;-67
2022/03/03 10:25:52;;;;;;;25.15;15.32;;;;;;;8.52;46.69;101830.50;5028958;28;20021;-67
2022/03/03 10:28:20;;;;;;;30.02;16.65;;;;;;;8.55;46.77;101822.28;5028960;28;20064;-67
2022/03/03 10:30:57;;;;;;;30.88;17.52;;;;;;;8.59;45.97;101823.69;5027687;28;20025;-67
2022/03/03 10:33:25;;;;;;;31.27;17.20;;;;;;;8.63;46.05;101820.66;5028305;28;20032;-68
2022/03/03 10:36:05;;;;;;;23.90;14.93;;;;;;;8.69;46.17;101821.94;5028380;28;20014;-67
2022/03/03 10:38:31;;;;;;;27.42;16.65;;;;;;;8.74;46.18;101821.53;5027733;28;20514;-67
2022/03/03 10:40:57;;;;;;;28.65;16.80;;;;;;;8.75;45.75;101813.47;5025417;28;20013;-67
2022/03/03 10:43:23;;;;;;;24.60;15.10;;;;;;;8.75;45.64;101817.91;5027584;28;20111;-67
2022/03/03 10:45:59;;;;;;;25.25;15.50;;;;;;;8.74;45.63;101824.19;5026889;28;20496;-67
2022/03/03 10:48:26;;;;;;;28.95;16.52;;;;;;;8.71;45.84;101825.31;5024891;28;20021;-67
2022/03/03 10:50:54;;;;;;;25.00;15.70;;;;;;;8.75;45.52;101821.41;5023313;28;20408;-67
2022/03/03 10:53:23;;;;;;;26.33;15.88;;;;;;;8.79;45.73;101814.88;5026307;28;20032;-66
2022/03/03 10:56:07;;;;;;;21.47;14.80;;;;;;;8.77;45.57;101811.50;5024816;28;20021;-67
2022/03/03 10:58:46;;;;;;;22.45;14.73;;;;;;;8.79;45.16;101806.91;5022639;28;20048;-67
2022/03/03 11:01:12;;;;;;;27.50;14.93;;;;;;;8.71;45.23;101803.28;5024469;28;20370;-68
2022/03/03 11:03:39;;;;;;;25.40;14.48;;;;;;;8.71;44.60;101816.50;5027138;28;20056;-68
2022/03/03 11:06:05;;;;;;;21.25;13.95;;;;;;;8.67;44.48;101811.50;5026812;28;20025;-68
2022/03/03 11:08:30;;;;;;;22.65;14.63;;;;;;;8.70;45.47;101802.44;5023238;28;20791;-68
2022/03/03 11:10:56;;;;;;;21.13;13.63;;;;;;;8.84;45.36;101810.00;5025261;28;20521;-67
2022/03/03 11:13:22;;;;;;;23.83;14.80;;;;;;;8.86;44.43;101800.09;5020448;28;20034;-68
2022/03/03 11:15:48;;;;;;;20.90;13.95;;;;;;;8.82;44.11;101790.75;5027396;28;20425;-68
2022/03/03 11:18:18;;;;;;;22.52;14.00;;;;;;;8.91;44.44;101813.75;5027343;28;20044;-68